Time;durP1;ratioP1;P1;durP2;ratioP2;P2;SDS_P1;SDS_P2;PMS_P1;PMS_P2;Temp;Humidity;BMP_temperature;BMP_pressure;BME280_temperature;BME280_humidity;BME280_pressure;Samples;Min_cycle;Max_cycle;Signal;HPM_P1;HPM_P2
2022/08/29 00:01:50;;;;;;;8.27;6.70;;;;;;;;;;4965273;28;20380;-67
2022/08/29 00:04:16;;;;;;;8.02;6.93;;;;;;;;;;4966133;28;20569;-66
2022/08/29 00:06:41;;;;;;;17.13;9.55;;;;;;;;;;4965083;28;20051;-68
2022/08/29 00:09:06;;;;;;;17.58;11.40;;;;;;;;;;4966609;28;20039;-67
2022/08/29 00:11:32;;;;;;;13.38;10.55;;;;;;;;;;4965519;28;20047;-67
2022/08/29 00:13:58;;;;;;;9.20;8.00;;;;;;;;;;4965895;28;20038;-67
2022/08/29 00:16:23;;;;;;;9.23;7.40;;;;;;;;;;4964356;28;20055;-66
2022/08/29 00:18:49;;;;;;;9.77;8.10;;;;;;;;;;4964993;28;20077;-66
2022/08/29 00:21:14;;;;;;;29.60;7.75;;;;;;;;;;4964782;28;20055;-68
2022/08/29 00:23:42;;;;;;;12.30;7.18;;;;;;;;;;4964139;28;20141;-69
2022/08/29 00:26:08;;;;;;;15.77;7.20;;;;;;;;;;4964677;28;20128;-68
2022/08/29 00:28:33;;;;;;;26.67;5.93;;;;;;;;;;4964148;28;20633;-66
2022/08/29 00:30:58;;;;;;;8.77;5.53;;;;;;;;;;4964286;28;20058;-68
2022/08/29 00:33:24;;;;;;;8.80;6.30;;;;;;;;;;4963595;28;20055;-67
2022/08/29 00:35:49;;;;;;;9.25;7.38;;;;;;;;;;4964574;28;20097;-67
2022/08/29 00:38:16;;;;;;;78.00;7.95;;;;;;;;;;4964485;28;20518;-67
2022/08/29 00:40:45;;;;;;;30.23;6.85;;;;;;;;;;4963613;28;20053;-66
2022/08/29 00:43:11;;;;;;;16.42;5.60;;;;;;;;;;4964560;28;20077;-67
2022/08/29 00:45:45;;;;;;;63.67;7.35;;;;;;;;;;4963390;28;20046;-66
2022/08/29 00:48:14;;;;;;;44.90;6.82;;;;;;;;;;4964189;28;20057;-66
2022/08/29 00:50:46;;;;;;;82.88;4.57;;;;;;;;;;4963434;28;20050;-67
2022/08/29 00:53:15;;;;;;;78.63;5.07;;;;;;;;;;4964277;28;20043;-67
2022/08/29 00:55:43;;;;;;;65.03;5.22;;;;;;;;;;4963253;28;20043;-67
2022/08/29 00:58:13;;;;;;;47.03;5.70;;;;;;;;;;4963942;28;20043;-66
2022/08/29 01:00:39;;;;;;;82.63;4.88;;;;;;;;;;4962761;28;20566;-66
2022/08/29 01:03:06;;;;;;;52.72;4.88;;;;;;;;;;4963894;28;20055;-65
2022/08/29 01:05:31;;;;;;;56.40;6.20;;;;;;;;;;4963972;28;20496;-66
2022/08/29 01:07:57;;;;;;;28.52;4.13;;;;;;;;;;4963129;28;20042;-65
2022/08/29 01:13:10;;;;;;;35.72;3.92;;;;;;;;;;4963816;28;20064;-65
2022/08/29 01:15:37;;;;;;;16.83;4.43;;;;;;;;;;4962887;28;20105;-65
2022/08/29 01:18:04;;;;;;;10.07;4.00;;;;;;;;;;4963039;28;20116;-67
2022/08/29 01:20:45;;;;;;;6.25;3.50;;;;;;;;;;4963055;28;20049;-65
2022/08/29 01:23:10;;;;;;;14.30;4.10;;;;;;;;;;4963923;28;20075;-66
2022/08/29 01:25:39;;;;;;;5.70;3.88;;;;;;;;;;4963500;28;20080;-65
2022/08/29 01:28:10;;;;;;;4.88;4.18;;;;;;;;;;4963224;28;20046;-67
2022/08/29 01:30:54;;;;;;;5.38;4.80;;;;;;;;;;4961164;28;20042;-67
2022/08/29 01:33:20;;;;;;;6.00;5.05;;;;;;;;;;4963036;28;20060;-67
2022/08/29 01:35:45;;;;;;;8.15;5.18;;;;;;;;;;4963226;28;20051;-67
2022/08/29 01:38:26;;;;;;;9.70;5.72;;;;;;;;;;4963941;28;20042;-66
2022/08/29 01:40:54;;;;;;;6.55;5.82;;;;;;;;;;4975645;28;20109;-68
2022/08/29 01:43:20;;;;;;;10.45;6.47;;;;;;;;;;4963624;28;20451;-67
2022/08/29 01:45:45;;;;;;;11.23;6.95;;;;;;;;;;4963194;28;20495;-67
2022/08/29 01:48:11;;;;;;;12.07;6.70;;;;;;;;;;4963573;28;20137;-68
2022/08/29 01:50:36;;;;;;;12.10;7.10;;;;;;;;;;4962047;28;20161;-68
2022/08/29 01:53:02;;;;;;;14.30;6.15;;;;;;;;;;4963042;28;20050;-67
2022/08/29 01:55:27;;;;;;;11.30;5.90;;;;;;;;;;4963398;28;20076;-66
2022/08/29 01:57:53;;;;;;;8.32;5.35;;;;;;;;;;4962290;28;20082;-67
2022/08/29 02:00:21;;;;;;;8.20;5.20;;;;;;;;;;4962860;28;20039;-67
2022/08/29 02:02:46;;;;;;;6.63;5.20;;;;;;;;;;4963153;28;20946;-66
2022/08/29 02:05:12;;;;;;;6.13;5.10;;;;;;;;;;4964417;28;20046;-67
2022/08/29 02:07:37;;;;;;;9.10;6.47;;;;;;;;;;4964107;28;20161;-66
2022/08/29 02:10:05;;;;;;;12.05;6.97;;;;;;;;;;4963736;28;20082;-66
2022/08/29 02:12:31;;;;;;;10.40;6.93;;;;;;;;;;4993460;28;20130;-67
2022/08/29 02:14:57;;;;;;;8.27;6.15;;;;;;;;;;4963258;28;20065;-66
2022/08/29 02:17:23;;;;;;;10.60;5.75;;;;;;;;;;4993381;28;20062;-68
2022/08/29 02:19:48;;;;;;;9.55;5.40;;;;;;;;;;4962748;28;20042;-67
2022/08/29 02:22:14;;;;;;;11.07;4.95;;;;;;;;;;4962538;28;20583;-67
2022/08/29 02:24:40;;;;;;;22.27;4.55;;;;;;;;;;4961688;28;20547;-66
2022/08/29 02:27:06;;;;;;;10.82;4.07;;;;;;;;;;4962529;28;20057;-67
2022/08/29 02:29:32;;;;;;;3.80;3.20;;;;;;;;;;4962728;28;20400;-67
2022/08/29 02:31:57;;;;;;;11.25;3.13;;;;;;;;;;4961995;28;20050;-69
2022/08/29 02:34:23;;;;;;;5.50;3.20;;;;;;;;;;4961823;28;20070;-66
2022/08/29 02:36:49;;;;;;;5.75;2.90;;;;;;;;;;4962308;28;20043;-66
2022/08/29 02:39:15;;;;;;;3.65;3.28;;;;;;;;;;4962699;28;20137;-67
2022/08/29 02:41:40;;;;;;;3.80;3.50;;;;;;;;;;4962147;28;20047;-66
2022/08/29 02:44:06;;;;;;;5.57;5.07;;;;;;;;;;4962842;28;20042;-66
2022/08/29 02:46:31;;;;;;;5.93;5.32;;;;;;;;;;4961172;28;20038;-67
2022/08/29 02:48:57;;;;;;;4.97;4.47;;;;;;;;;;4962496;28;20402;-67
2022/08/29 02:51:26;;;;;;;5.95;4.20;;;;;;;;;;4962122;28;20077;-67
2022/08/29 02:53:53;;;;;;;5.38;3.90;;;;;;;;;;4962832;28;20042;-66
2022/08/29 02:56:19;;;;;;;61.42;3.95;;;;;;;;;;4961323;28;20113;-67
2022/08/29 02:58:46;;;;;;;14.15;3.22;;;;;;;;;;4962504;28;20050;-67
2022/08/29 03:01:12;;;;;;;15.13;2.60;;;;;;;;;;4961826;28;20427;-65
2022/08/29 03:03:38;;;;;;;8.25;2.50;;;;;;;;;;4962321;28;20051;-67
2022/08/29 03:06:04;;;;;;;21.38;3.33;;;;;;;;;;4962510;28;20047;-67
2022/08/29 03:08:30;;;;;;;18.58;3.40;;;;;;;;;;4960957;28;20097;-67
2022/08/29 03:10:55;;;;;;;10.60;2.83;;;;;;;;;;4961383;28;20103;-66
2022/08/29 03:13:21;;;;;;;20.17;3.00;;;;;;;;;;4961953;28;20042;-67
2022/08/29 03:15:47;;;;;;;21.38;4.90;;;;;;;;;;4961433;28;20043;-66
2022/08/29 03:18:13;;;;;;;3.90;3.00;;;;;;;;;;4961403;28;20085;-67
2022/08/29 03:20:40;;;;;;;5.75;3.20;;;;;;;;;;4961199;28;20444;-66
2022/08/29 03:23:06;;;;;;;3.17;2.95;;;;;;;;;;4964590;28;20213;-66
2022/08/29 03:25:32;;;;;;;5.60;3.42;;;;;;;;;;4965650;28;20050;-66
2022/08/29 03:27:58;;;;;;;3.78;3.28;;;;;;;;;;4965838;28;20573;-66
2022/08/29 03:30:25;;;;;;;6.65;4.30;;;;;;;;;;4963885;28;20546;-67
2022/08/29 03:32:51;;;;;;;4.30;3.63;;;;;;;;;;4963064;28;20496;-66
2022/08/29 03:35:18;;;;;;;5.57;3.97;;;;;;;;;;4965624;28;20161;-66
2022/08/29 03:37:44;;;;;;;6.13;4.35;;;;;;;;;;4965225;28;20043;-67
2022/08/29 03:40:12;;;;;;;8.52;4.47;;;;;;;;;;4963207;28;20043;-67
2022/08/29 03:42:38;;;;;;;5.63;4.30;;;;;;;;;;4963781;28;20046;-67
2022/08/29 03:45:10;;;;;;;5.13;4.68;;;;;;;;;;4965747;28;20050;-68
2022/08/29 03:47:36;;;;;;;6.68;5.60;;;;;;;;;;4965522;28;20101;-66
2022/08/29 03:50:01;;;;;;;12.82;7.65;;;;;;;;;;4965715;28;20050;-67
2022/08/29 03:52:26;;;;;;;10.05;8.23;;;;;;;;;;4962239;28;20051;-67
2022/08/29 03:54:52;;;;;;;13.68;7.80;;;;;;;;;;4965507;28;20109;-66
2022/08/29 03:57:18;;;;;;;11.35;9.15;;;;;;;;;;4965373;28;20552;-67
2022/08/29 03:59:43;;;;;;;10.50;8.35;;;;;;;;;;4965620;28;20035;-67
2022/08/29 04:02:09;;;;;;;12.43;7.97;;;;;;;;;;4962985;28;20082;-66
2022/08/29 04:07:18;;;;;;;16.15;9.75;;;;;;;;;;4964900;28;20038;-67
2022/08/29 04:09:44;;;;;;;13.73;10.30;;;;;;;;;;4964559;28;20109;-67
2022/08/29 04:12:12;;;;;;;12.23;8.20;;;;;;;;;;4964604;28;20046;-67
2022/08/29 04:14:38;;;;;;;9.57;7.28;;;;;;;;;;4963371;28;20137;-70
2022/08/29 04:17:04;;;;;;;7.97;6.18;;;;;;;;;;4964512;28;20122;-72
2022/08/29 04:19:30;;;;;;;7.53;5.90;;;;;;;;;;4964831;28;20046;-67
2022/08/29 04:21:56;;;;;;;8.85;6.28;;;;;;;;;;4964850;28;20074;-68
2022/08/29 04:24:23;;;;;;;7.75;6.00;;;;;;;;;;4963554;28;21142;-68
2022/08/29 04:26:48;;;;;;;7.15;5.57;;;;;;;;;;4965012;28;20066;-68
2022/08/29 04:29:14;;;;;;;7.32;5.60;;;;;;;;;;4965102;28;21283;-68
2022/08/29 04:31:41;;;;;;;7.82;5.45;;;;;;;;;;4964046;28;20415;-68
2022/08/29 04:34:09;;;;;;;7.43;6.25;;;;;;;;;;4962307;28;20100;-68
2022/08/29 04:36:40;;;;;;;8.15;6.95;;;;;;;;;;4963626;28;20865;-68
2022/08/29 04:39:07;;;;;;;8.68;6.53;;;;;;;;;;4964719;28;20081;-70
2022/08/29 04:41:32;;;;;;;8.45;7.10;;;;;;;;;;4963761;28;20122;-68
2022/08/29 04:43:58;;;;;;;11.07;6.68;;;;;;;;;;4965083;28;20862;-68
2022/08/29 04:46:23;;;;;;;8.95;5.45;;;;;;;;;;4963445;28;20084;-69
2022/08/29 04:48:49;;;;;;;8.40;5.53;;;;;;;;;;4964924;28;20046;-69
2022/08/29 04:51:14;;;;;;;9.38;5.78;;;;;;;;;;4964313;28;20077;-69
2022/08/29 04:53:40;;;;;;;7.07;5.50;;;;;;;;;;4964194;28;20419;-68
2022/08/29 04:56:08;;;;;;;9.07;5.57;;;;;;;;;;4964577;28;20050;-69
2022/08/29 04:58:36;;;;;;;6.25;5.65;;;;;;;;;;4963498;28;20058;-68
2022/08/29 05:01:03;;;;;;;5.30;4.80;;;;;;;;;;4963441;28;20492;-70
2022/08/29 05:03:29;;;;;;;9.45;5.88;;;;;;;;;;4964336;28;20042;-70
2022/08/29 05:06:00;;;;;;;15.90;5.35;;;;;;;;;;4964475;28;20523;-70
2022/08/29 05:08:27;;;;;;;21.07;3.60;;;;;;;;;;4962151;28;20072;-69
2022/08/29 05:10:53;;;;;;;2.95;2.75;;;;;;;;;;4964021;28;20453;-69
2022/08/29 05:13:19;;;;;;;4.18;3.20;;;;;;;;;;4961830;28;21110;-69
2022/08/29 05:15:45;;;;;;;10.82;3.83;;;;;;;;;;4963334;28;20073;-69
2022/08/29 05:18:12;;;;;;;12.88;4.80;;;;;;;;;;4964396;28;20404;-71
2022/08/29 05:20:42;;;;;;;13.82;3.70;;;;;;;;;;4963447;28;20039;-69
2022/08/29 05:23:09;;;;;;;18.63;3.85;;;;;;;;;;4964204;28;20042;-69
2022/08/29 05:25:35;;;;;;;20.05;3.58;;;;;;;;;;4963847;28;20112;-69
2022/08/29 05:28:01;;;;;;;4.18;2.53;;;;;;;;;;4963467;28;20038;-69
2022/08/29 05:30:27;;;;;;;7.88;2.90;;;;;;;;;;4960634;28;21803;-71
2022/08/29 05:32:53;;;;;;;8.15;2.65;;;;;;;;;;4961248;28;20081;-69
2022/08/29 05:35:19;;;;;;;2.65;2.55;;;;;;;;;;4961592;28;20519;-69
2022/08/29 05:37:44;;;;;;;2.70;2.50;;;;;;;;;;4961189;28;20058;-69
2022/08/29 05:40:10;;;;;;;2.90;2.70;;;;;;;;;;4961654;28;20039;-69
2022/08/29 05:42:36;;;;;;;2.92;2.72;;;;;;;;;;4958981;28;20467;-68
2022/08/29 05:45:04;;;;;;;2.97;2.78;;;;;;;;;;4961488;28;20034;-69
2022/08/29 05:47:30;;;;;;;2.95;2.75;;;;;;;;;;4962713;28;20137;-70
2022/08/29 05:49:57;;;;;;;5.07;3.45;;;;;;;;;;4962584;28;20125;-71
2022/08/29 05:52:24;;;;;;;3.60;3.30;;;;;;;;;;4961490;28;20110;-71
2022/08/29 05:54:50;;;;;;;4.70;3.58;;;;;;;;;;4962834;28;20046;-69
2022/08/29 05:57:20;;;;;;;5.82;4.00;;;;;;;;;;4963029;28;20430;-69
2022/08/29 05:59:50;;;;;;;3.85;3.55;;;;;;;;;;4962370;28;21078;-69
2022/08/29 07:00:48;;;;;;;3.30;3.03;;;;;;;;;;5028990;28;20416;-70
2022/08/29 07:03:14;;;;;;;5.18;2.80;;;;;;;;;;5029853;28;20106;-70
2022/08/29 07:05:39;;;;;;;3.63;3.30;;;;;;;;;;5073952;23;20053;-72
2022/08/29 07:08:05;;;;;;;3.20;2.90;;;;;;;;;;5065902;28;20048;-72
2022/08/29 07:10:30;;;;;;;3.05;2.80;;;;;;;;;;5064882;28;20036;-72
2022/08/29 07:12:55;;;;;;;3.30;3.00;;;;;;;;;;5065666;28;20053;-73
2022/08/29 07:15:22;;;;;;;5.43;2.75;;;;;;;;;;5066285;28;20048;-72
2022/08/29 07:17:48;;;;;;;3.90;2.80;;;;;;;;;;5066126;28;20077;-72
2022/08/29 07:20:14;;;;;;;3.28;2.90;;;;;;;;;;5055591;28;20096;-72
2022/08/29 07:22:40;;;;;;;3.05;2.65;;;;;;;;;;5045743;28;20037;-72
2022/08/29 07:25:06;;;;;;;3.00;2.70;;;;;;;;;;5046199;28;20524;-73
2022/08/29 07:27:32;;;;;;;5.45;2.58;;;;;;;;;;5047902;28;20076;-74
2022/08/29 07:29:59;;;;;;;4.45;2.95;;;;;;;;;;5045915;28;20041;-74
2022/08/29 07:32:25;;;;;;;2.80;2.60;;;;;;;;;;5049198;28;20041;-72
2022/08/29 07:34:50;;;;;;;3.00;2.70;;;;;;;;;;5054024;28;20041;-75
2022/08/29 07:37:16;;;;;;;2.80;2.60;;;;;;;;;;5054304;28;20099;-74
2022/08/29 07:39:41;;;;;;;2.78;2.50;;;;;;;;;;5054322;28;20072;-74
2022/08/29 07:42:07;;;;;;;3.05;2.75;;;;;;;;;;5052621;28;20053;-72
2022/08/29 07:44:33;;;;;;;4.18;2.72;;;;;;;;;;5055594;28;20067;-74
2022/08/29 07:46:59;;;;;;;5.53;2.90;;;;;;;;;;5055122;28;20037;-72
2022/08/29 07:49:26;;;;;;;5.10;2.80;;;;;;;;;;5054981;28;20052;-72
2022/08/29 07:51:53;;;;;;;3.50;2.53;;;;;;;;;;5053479;28;20132;-72
2022/08/29 07:54:20;;;;;;;4.40;3.03;;;;;;;;;;5055028;28;20095;-72
2022/08/29 07:56:48;;;;;;;2.90;2.70;;;;;;;;;;5054841;28;20033;-72
2022/08/29 07:59:14;;;;;;;3.38;2.60;;;;;;;;;;5054839;28;20064;-73
2022/08/29 08:01:40;;;;;;;2.72;2.53;;;;;;;;;;5042159;28;20411;-71
2022/08/29 08:04:06;;;;;;;3.00;2.70;;;;;;;;;;5048540;28;20041;-72
2022/08/29 08:06:33;;;;;;;3.58;2.88;;;;;;;;;;5038387;28;20405;-71
2022/08/29 08:08:59;;;;;;;3.53;2.60;;;;;;;;;;5032292;28;20042;-72
2022/08/29 08:11:25;;;;;;;6.60;3.13;;;;;;;;;;5015461;28;21149;-71
2022/08/29 08:13:52;;;;;;;4.57;3.05;;;;;;;;;;5006909;28;20065;-71
2022/08/29 08:16:20;;;;;;;3.00;2.70;;;;;;;;;;4998928;28;20049;-72
2022/08/29 08:18:46;;;;;;;3.75;2.88;;;;;;;;;;5006351;28;20049;-71
2022/08/29 08:21:12;;;;;;;4.63;3.22;;;;;;;;;;5006568;28;20076;-72
2022/08/29 08:23:39;;;;;;;3.67;3.10;;;;;;;;;;4995775;28;20130;-71
2022/08/29 08:26:05;;;;;;;3.78;2.90;;;;;;;;;;4996854;28;20115;-72
2022/08/29 08:28:31;;;;;;;4.78;3.55;;;;;;;;;;5009049;28;20471;-71
2022/08/29 08:30:58;;;;;;;3.88;3.50;;;;;;;;;;5008197;28;20053;-72
2022/08/29 08:33:24;;;;;;;5.35;3.45;;;;;;;;;;5009056;28;20080;-70
2022/08/29 08:35:50;;;;;;;4.57;3.50;;;;;;;;;;5009009;28;20050;-70
2022/08/29 08:38:16;;;;;;;4.00;3.70;;;;;;;;;;5033738;28;20049;-70
2022/08/29 08:41:01;;;;;;;5.78;4.50;;;;;;;;;;5031458;28;20044;-70
2022/08/29 08:43:51;;;;;;;7.57;4.30;;;;;;;;;;5044436;28;20103;-70
2022/08/29 08:46:23;;;;;;;4.65;4.15;;;;;;;;;;5047058;28;20072;-70
2022/08/29 08:48:51;;;;;;;6.70;5.97;;;;;;;;;;5043327;28;20044;-70
2022/08/29 08:51:24;;;;;;;5.65;4.50;;;;;;;;;;5035155;28;20123;-72
2022/08/29 08:53:53;;;;;;;5.88;4.90;;;;;;;;;;5042079;28;20438;-72
2022/08/29 15:08:43;;;;;;;6.80;3.38;;;;;;;;;;5019454;28;20361;-69
2022/08/29 15:11:46;;;;;;;6.85;3.67;;;;;;;;;;5077538;27;20193;-65
2022/08/29 15:14:11;;;;;;;5.30;3.78;;;;;;;;;;5046490;28;20079;-65
2022/08/29 15:16:36;;;;;;;5.70;3.25;;;;;;;;;;5034754;28;20121;-69
2022/08/29 15:48:43;;;;;;;5.03;4.55;;;;;;;;;;5084812;27;20360;-68
2022/08/29 15:51:09;;;;;;;10.52;4.60;;;;;;;;;;5048640;28;20049;-67
2022/08/29 15:53:34;;;;;;;4.85;4.05;;;;;;;;;;5043724;28;20049;-67
2022/08/29 15:55:59;;;;;;;6.45;4.35;;;;;;;;;;5043044;28;20437;-66
2022/08/29 16:01:24;;;;;;;8.77;4.43;;;;;;;;;;5072655;27;20375;-65
2022/08/29 16:03:49;;;;;;;4.85;4.40;;;;;;;;;;5023281;28;20038;-66
2022/08/29 16:06:15;;;;;;;7.55;4.82;;;;;;;;;;5024286;28;20045;-66
2022/08/29 16:08:40;;;;;;;7.35;4.28;;;;;;;;;;5022614;28;20042;-67
2022/08/29 16:11:06;;;;;;;7.50;4.60;;;;;;;;;;5022713;28;20115;-66
2022/08/29 16:13:31;;;;;;;7.63;4.40;;;;;;;;;;5023271;28;20690;-66
2022/08/29 16:15:57;;;;;;;6.10;4.20;;;;;;;;;;5022432;28;20128;-66
2022/08/29 16:18:22;;;;;;;4.88;3.92;;;;;;;;;;5023280;28;20038;-67
2022/08/29 16:20:48;;;;;;;7.30;3.90;;;;;;;;;;5022432;28;20058;-66
2022/08/29 16:23:14;;;;;;;6.43;4.20;;;;;;;;;;5021426;28;20150;-66
2022/08/29 16:25:41;;;;;;;7.53;4.20;;;;;;;;;;5023016;28;20128;-67
2022/08/29 16:28:07;;;;;;;7.95;4.88;;;;;;;;;;5023939;28;20128;-68
2022/08/29 16:30:33;;;;;;;5.28;4.68;;;;;;;;;;5023874;28;20065;-69
2022/08/29 16:32:58;;;;;;;5.78;4.07;;;;;;;;;;5024141;28;20053;-69
2022/08/29 16:35:24;;;;;;;6.20;4.35;;;;;;;;;;5021944;28;20110;-68
2022/08/29 16:37:50;;;;;;;5.10;4.45;;;;;;;;;;5022773;28;20651;-68
2022/08/29 16:40:16;;;;;;;6.18;4.60;;;;;;;;;;5023982;28;20144;-69
2022/08/29 16:42:42;;;;;;;5.00;4.20;;;;;;;;;;5023887;28;20127;-69
2022/08/29 16:45:09;;;;;;;6.85;4.20;;;;;;;;;;5023437;28;20077;-69
2022/08/29 16:47:35;;;;;;;4.50;4.07;;;;;;;;;;5023958;28;20038;-69
2022/08/29 16:50:00;;;;;;;6.72;4.28;;;;;;;;;;5024095;28;20038;-67
2022/08/29 16:52:27;;;;;;;5.38;4.55;;;;;;;;;;5025731;28;20149;-68
2022/08/29 16:54:53;;;;;;;11.80;4.68;;;;;;;;;;5016686;28;20045;-67
2022/08/29 16:57:18;;;;;;;6.70;4.38;;;;;;;;;;5015224;28;20048;-68
2022/08/29 16:59:44;;;;;;;7.03;4.38;;;;;;;;;;5025037;28;20050;-68
2022/08/29 17:02:09;;;;;;;5.47;4.00;;;;;;;;;;5024461;28;20050;-67
2022/08/29 17:04:35;;;;;;;4.50;4.10;;;;;;;;;;5023882;28;20041;-68
2022/08/29 17:07:01;;;;;;;5.38;4.40;;;;;;;;;;5022939;28;20057;-68
2022/08/29 17:16:48;;;;;;;7.57;5.00;;;;;;;;;;4999483;28;20523;-68
2022/08/29 17:19:14;;;;;;;6.03;4.68;;;;;;;;;;5002394;28;20181;-67
2022/08/29 17:21:40;;;;;;;6.07;4.65;;;;;;;;;;5009056;28;20132;-68
2022/08/29 17:24:06;;;;;;;8.07;5.38;;;;;;;;;;5011949;28;20068;-67
2022/08/29 17:26:35;;;;;;;8.95;4.80;;;;;;;;;;5011644;28;20491;-68
2022/08/29 17:29:00;;;;;;;6.35;4.85;;;;;;;;;;4999688;28;20617;-68
2022/08/29 17:31:26;;;;;;;6.50;4.72;;;;;;;;;;5011712;28;20066;-67
2022/08/29 17:33:51;;;;;;;7.05;4.90;;;;;;;;;;5019017;28;20510;-67
2022/08/29 17:36:18;;;;;;;6.50;5.03;;;;;;;;;;5015211;28;20061;-69
2022/08/29 17:38:46;;;;;;;5.78;4.57;;;;;;;;;;5011787;28;20671;-68
2022/08/29 17:41:15;;;;;;;8.23;5.10;;;;;;;;;;5008364;28;20046;-68
2022/08/29 17:43:40;;;;;;;6.35;4.65;;;;;;;;;;4992349;28;20057;-68
2022/08/29 17:46:06;;;;;;;8.27;4.82;;;;;;;;;;4997266;28;20042;-68
2022/08/29 17:48:32;;;;;;;8.27;5.10;;;;;;;;;;5002642;28;20518;-68
2022/08/29 17:50:57;;;;;;;7.55;4.53;;;;;;;;;;4997516;28;20050;-68
2022/08/29 17:53:23;;;;;;;6.43;4.85;;;;;;;;;;5008573;28;20525;-67
2022/08/29 17:55:50;;;;;;;4.90;4.50;;;;;;;;;;5011288;28;20053;-67
2022/08/29 17:58:17;;;;;;;7.03;4.75;;;;;;;;;;5011223;28;20390;-66
2022/08/29 18:00:42;;;;;;;8.35;4.82;;;;;;;;;;5011548;28;20053;-67
2022/08/29 18:03:08;;;;;;;10.73;5.18;;;;;;;;;;5013900;28;20057;-66
2022/08/29 18:05:33;;;;;;;7.18;5.35;;;;;;;;;;5016487;28;20053;-67
2022/08/29 18:07:59;;;;;;;8.27;5.35;;;;;;;;;;5011958;28;20465;-67
2022/08/29 18:10:24;;;;;;;5.57;5.05;;;;;;;;;;5010606;28;20770;-68
2022/08/29 18:12:50;;;;;;;5.60;5.07;;;;;;;;;;5009871;28;20434;-67
2022/08/29 18:15:16;;;;;;;16.60;12.25;;;;;;;;;;5010755;28;20120;-67
2022/08/29 18:17:44;;;;;;;10.18;8.32;;;;;;;;;;5010963;28;20041;-68
2022/08/29 18:20:11;;;;;;;9.20;6.65;;;;;;;;;;5010440;28;20749;-68
2022/08/29 18:22:38;;;;;;;9.18;5.95;;;;;;;;;;5009220;28;20061;-71
2022/08/29 18:25:05;;;;;;;8.43;6.28;;;;;;;;;;5009743;28;20414;-67
2022/08/29 18:27:32;;;;;;;16.95;7.55;;;;;;;;;;5009700;28;20056;-67
2022/08/29 18:29:58;;;;;;;11.18;7.13;;;;;;;;;;5025971;28;20514;-67
2022/08/29 18:32:59;;;;;;;6.68;5.97;;;;;;;;;;5046783;27;20925;-69
2022/08/29 18:35:25;;;;;;;8.43;6.43;;;;;;;;;;5035573;28;20121;-68
2022/08/29 18:37:50;;;;;;;9.80;6.45;;;;;;;;;;5039985;28;20053;-69
2022/08/29 18:40:16;;;;;;;9.60;6.22;;;;;;;;;;5046388;28;20037;-68
2022/08/29 18:42:41;;;;;;;7.25;6.00;;;;;;;;;;5045860;28;20687;-68
2022/08/29 18:45:08;;;;;;;8.60;6.35;;;;;;;;;;5045894;28;20052;-66
2022/08/29 18:47:33;;;;;;;10.77;6.03;;;;;;;;;;5045334;28;20071;-69
2022/08/29 18:52:44;;;;;;;10.00;5.97;;;;;;;;;;5044925;28;20506;-66
2022/08/29 18:55:10;;;;;;;10.25;5.95;;;;;;;;;;5044048;28;20052;-68
2022/08/29 18:57:35;;;;;;;12.05;6.20;;;;;;;;;;5045693;28;20136;-67
2022/08/29 19:00:02;;;;;;;10.90;6.47;;;;;;;;;;5045862;28;20132;-66
2022/08/29 19:02:28;;;;;;;8.32;6.20;;;;;;;;;;5045132;28;20084;-66
2022/08/29 19:04:54;;;;;;;10.68;6.28;;;;;;;;;;5045301;28;20542;-68
2022/08/29 19:07:20;;;;;;;6.82;6.05;;;;;;;;;;5038825;28;20438;-66
2022/08/29 19:09:45;;;;;;;9.60;5.97;;;;;;;;;;5045427;28;20080;-68
2022/08/29 19:12:11;;;;;;;7.20;6.45;;;;;;;;;;5027746;28;20053;-68
2022/08/29 19:14:37;;;;;;;9.90;6.72;;;;;;;;;;5046004;28;20041;-67
2022/08/29 19:17:03;;;;;;;6.40;5.78;;;;;;;;;;5062640;28;20128;-68
2022/08/29 19:21:01;;;;;;;10.23;6.35;;;;;;;;;;5053661;28;20068;-68
2022/08/29 19:22:18;;;;;;;12.25;6.40;;;;;;;;;;5045856;28;20135;-67
2022/08/29 19:24:44;;;;;;;7.50;6.07;;;;;;;;;;5045404;28;20501;-67
2022/08/29 19:27:09;;;;;;;10.90;6.47;;;;;;;;;;5045704;28;20045;-66
2022/08/29 19:29:35;;;;;;;8.55;6.38;;;;;;;;;;5046498;28;20096;-67
2022/08/29 19:32:00;;;;;;;7.78;6.30;;;;;;;;;;5056384;28;20106;-66
2022/08/29 19:34:26;;;;;;;8.60;6.72;;;;;;;;;;5052018;28;20099;-68
2022/08/29 19:36:51;;;;;;;8.65;6.65;;;;;;;;;;5054138;28;20090;-68
2022/08/29 19:39:17;;;;;;;10.50;6.68;;;;;;;;;;5054404;28;20064;-70
2022/08/29 19:41:43;;;;;;;9.10;6.35;;;;;;;;;;5054985;28;20471;-67
2022/08/29 19:44:08;;;;;;;9.25;6.13;;;;;;;;;;5037539;28;20048;-66
2022/08/29 19:46:34;;;;;;;7.72;6.70;;;;;;;;;;5043824;28;20053;-67
2022/08/29 19:49:00;;;;;;;7.25;6.32;;;;;;;;;;5048986;28;20481;-67
2022/08/29 19:51:31;;;;;;;7.25;6.50;;;;;;;;;;5049130;28;20076;-67
2022/08/29 19:53:57;;;;;;;8.85;6.70;;;;;;;;;;5030140;28;20041;-67
2022/08/29 19:56:24;;;;;;;8.20;6.28;;;;;;;;;;5031737;28;20514;-69
2022/08/29 19:58:50;;;;;;;9.52;7.25;;;;;;;;;;5031217;28;20048;-65
2022/08/29 20:01:16;;;;;;;12.52;6.47;;;;;;;;;;5041009;28;20045;-65
2022/08/29 20:03:41;;;;;;;14.50;9.95;;;;;;;;;;5039213;28;20076;-66
2022/08/29 20:06:08;;;;;;;24.55;12.13;;;;;;;;;;5032217;28;20065;-67
2022/08/29 20:08:41;;;;;;;13.73;9.32;;;;;;;;;;5031924;28;20600;-68
2022/08/29 20:11:12;;;;;;;27.75;14.65;;;;;;;;;;5031053;28;20128;-67
2022/08/29 20:13:38;;;;;;;31.85;20.23;;;;;;;;;;5031071;28;20060;-66
2022/08/29 20:16:10;;;;;;;14.48;8.48;;;;;;;;;;5038558;28;20041;-68
2022/08/29 20:18:36;;;;;;;18.55;9.57;;;;;;;;;;5051835;28;20041;-68
2022/08/29 20:21:01;;;;;;;13.73;9.50;;;;;;;;;;5050880;28;20063;-68
2022/08/29 20:23:28;;;;;;;20.63;13.15;;;;;;;;;;5051578;28;20106;-67
2022/08/29 20:25:54;;;;;;;25.92;15.63;;;;;;;;;;5037338;28;20042;-67
2022/08/29 20:28:19;;;;;;;22.63;15.00;;;;;;;;;;5031569;28;20060;-68
2022/08/29 20:30:45;;;;;;;28.48;17.00;;;;;;;;;;5036330;28;20040;-66
2022/08/29 20:33:10;;;;;;;29.70;19.40;;;;;;;;;;5051710;28;20098;-66
2022/08/29 20:38:20;;;;;;;17.70;11.85;;;;;;;;;;5031405;28;20041;-67
2022/08/29 20:40:46;;;;;;;16.98;11.15;;;;;;;;;;5030424;28;20044;-66
2022/08/29 20:43:13;;;;;;;13.13;9.30;;;;;;;;;;5031315;28;20159;-66
2022/08/29 20:45:39;;;;;;;15.75;9.10;;;;;;;;;;5036220;28;20113;-67
2022/08/29 20:48:04;;;;;;;13.75;8.18;;;;;;;;;;5035336;28;20497;-67
2022/08/29 20:50:30;;;;;;;11.23;8.25;;;;;;;;;;5031679;28;20073;-66
2022/08/29 20:52:55;;;;;;;10.63;8.07;;;;;;;;;;5031868;28;20067;-67
2022/08/29 20:55:21;;;;;;;14.80;7.90;;;;;;;;;;5030089;28;20057;-67
2022/08/29 20:57:47;;;;;;;10.70;7.95;;;;;;;;;;5031848;28;20051;-66
2022/08/29 21:00:13;;;;;;;10.13;7.55;;;;;;;;;;5031739;28;20045;-66
2022/08/29 21:05:41;;;;;;;9.82;7.03;;;;;;;;;;5051005;28;20556;-66
2022/08/29 21:08:14;;;;;;;12.15;7.30;;;;;;;;;;5050890;28;20051;-66
2022/08/29 21:10:40;;;;;;;9.00;6.25;;;;;;;;;;5030105;28;20095;-66
2022/08/29 21:13:08;;;;;;;7.35;6.30;;;;;;;;;;5034439;28;20549;-67
2022/08/29 21:15:34;;;;;;;10.95;6.80;;;;;;;;;;5049944;28;20091;-67
2022/08/29 21:18:00;;;;;;;9.52;6.18;;;;;;;;;;5057556;28;20036;-68
2022/08/29 21:20:26;;;;;;;13.45;6.30;;;;;;;;;;5040102;28;20060;-67
2022/08/29 21:22:51;;;;;;;9.02;5.85;;;;;;;;;;5043127;28;20102;-67
2022/08/29 21:25:17;;;;;;;19.77;6.65;;;;;;;;;;5050639;28;20428;-67
2022/08/29 21:27:42;;;;;;;12.10;6.95;;;;;;;;;;5049378;28;20492;-67
2022/08/29 21:30:09;;;;;;;9.48;6.13;;;;;;;;;;5050127;28;20510;-67
2022/08/29 21:32:34;;;;;;;7.22;6.35;;;;;;;;;;5029961;28;20054;-66
2022/08/29 21:35:00;;;;;;;7.95;6.45;;;;;;;;;;5030053;28;20135;-67
2022/08/29 21:37:25;;;;;;;11.73;6.72;;;;;;;;;;5030344;28;20610;-67
2022/08/29 21:39:51;;;;;;;9.23;6.10;;;;;;;;;;5030294;28;20045;-67
2022/08/29 21:42:17;;;;;;;9.93;6.68;;;;;;;;;;5031099;28;20405;-67
2022/08/29 21:44:42;;;;;;;8.20;6.40;;;;;;;;;;5029566;28;20103;-67
2022/08/29 21:47:07;;;;;;;8.13;5.95;;;;;;;;;;5043183;28;20061;-67
2022/08/29 21:49:33;;;;;;;7.90;6.15;;;;;;;;;;5030219;28;20042;-67
2022/08/29 21:51:59;;;;;;;8.20;6.65;;;;;;;;;;5030013;28;20452;-67
2022/08/29 21:54:25;;;;;;;10.82;6.22;;;;;;;;;;5029118;28;20048;-67
2022/08/29 21:56:50;;;;;;;7.78;6.00;;;;;;;;;;5029512;28;20072;-67
2022/08/29 21:59:17;;;;;;;12.50;6.53;;;;;;;;;;5030110;28;20089;-67
2022/08/29 22:01:44;;;;;;;10.68;6.28;;;;;;;;;;5029339;28;20040;-67
2022/08/29 22:04:14;;;;;;;10.75;6.03;;;;;;;;;;5028995;28;20128;-67
2022/08/29 22:06:41;;;;;;;8.65;6.25;;;;;;;;;;5033703;23;20052;-70
2022/08/29 22:09:16;;;;;;;7.13;5.65;;;;;;;;;;4990475;28;20045;-69
2022/08/29 22:11:44;;;;;;;6.60;5.47;;;;;;;;;;4989591;28;20088;-69
2022/08/29 22:14:10;;;;;;;10.65;5.78;;;;;;;;;;4989847;28;20046;-69
2022/08/29 22:16:38;;;;;;;12.95;5.60;;;;;;;;;;4991938;28;20046;-68
2022/08/29 22:19:08;;;;;;;9.02;5.85;;;;;;;;;;4990120;28;20046;-69
2022/08/29 22:21:43;;;;;;;12.10;6.10;;;;;;;;;;4990042;28;20054;-69
2022/08/29 22:24:10;;;;;;;7.43;6.53;;;;;;;;;;5002698;28;20054;-68
2022/08/29 22:26:38;;;;;;;6.53;5.93;;;;;;;;;;5008967;28;20219;-69
2022/08/29 22:29:04;;;;;;;7.85;6.20;;;;;;;;;;5009073;28;20085;-69
2022/08/29 22:31:30;;;;;;;8.57;6.03;;;;;;;;;;5021134;28;20069;-69
2022/08/29 22:33:57;;;;;;;9.15;6.22;;;;;;;;;;5029528;28;20069;-69
2022/08/29 22:36:23;;;;;;;12.63;6.38;;;;;;;;;;5026462;28;20064;-69
2022/08/29 22:38:48;;;;;;;12.00;5.95;;;;;;;;;;5000916;28;20498;-69
2022/08/29 22:41:20;;;;;;;9.43;6.30;;;;;;;;;;4999357;28;20064;-69